Time;durP1;ratioP1;P1;durP2;ratioP2;P2;SDS_P1;SDS_P2;PMS_P1;PMS_P2;Temp;Humidity;BMP_temperature;BMP_pressure;BME280_temperature;BME280_humidity;BME280_pressure;Samples;Min_cycle;Max_cycle;Signal;HPM_P1;HPM_P2
2023/12/14 00:00:53;;;;;;;10.45;2.90;;;6.10;99.90;;;;;;5036463;28;20116;-65
2023/12/14 00:03:20;;;;;;;9.65;3.35;;;6.10;99.90;;;;;;5035221;28;20080;-65
2023/12/14 00:05:47;;;;;;;10.57;3.28;;;6.00;99.90;;;;;;5036624;28;20068;-65
2023/12/14 00:08:14;;;;;;;13.40;3.53;;;6.10;99.90;;;;;;5036255;28;20045;-65
2023/12/14 00:10:40;;;;;;;9.68;3.00;;;6.10;99.90;;;;;;5036444;28;20042;-65
2023/12/14 00:13:07;;;;;;;5.60;2.85;;;6.10;99.90;;;;;;5036124;28;20045;-65
2023/12/14 00:15:34;;;;;;;7.43;2.80;;;6.10;99.90;;;;;;5036334;28;20057;-65
2023/12/14 00:18:01;;;;;;;10.45;3.67;;;6.20;99.90;;;;;;5036224;28;20047;-67
2023/12/14 00:20:28;;;;;;;7.35;3.15;;;6.10;99.90;;;;;;5035962;28;20041;-65
2023/12/14 00:22:54;;;;;;;12.07;3.53;;;6.10;99.90;;;;;;5036180;28;20041;-65
2023/12/14 00:25:21;;;;;;;10.93;3.35;;;6.10;99.90;;;;;;5036043;28;20038;-65
2023/12/14 00:27:48;;;;;;;7.82;2.88;;;6.10;99.90;;;;;;5036177;28;20118;-65
2023/12/14 00:30:15;;;;;;;15.00;3.05;;;6.10;99.90;;;;;;5035276;28;20046;-66
2023/12/14 00:32:42;;;;;;;9.68;2.90;;;6.10;99.90;;;;;;5035627;28;20045;-65
2023/12/14 00:35:08;;;;;;;8.25;3.30;;;6.10;99.90;;;;;;5035461;28;20064;-65
2023/12/14 00:37:35;;;;;;;9.95;3.53;;;6.10;99.90;;;;;;5035912;28;20050;-65
2023/12/14 00:40:03;;;;;;;10.88;3.35;;;6.10;99.90;;;;;;5035882;28;20116;-65
2023/12/14 00:42:30;;;;;;;7.95;3.15;;;6.00;99.90;;;;;;5035237;28;20033;-65
2023/12/14 00:44:57;;;;;;;6.97;2.63;;;6.10;99.90;;;;;;5035759;28;20044;-65
2023/12/14 00:47:24;;;;;;;6.70;2.58;;;6.10;99.90;;;;;;5034412;28;20117;-65
2023/12/14 00:49:51;;;;;;;7.90;2.40;;;6.10;99.90;;;;;;5035657;28;20045;-65
2023/12/14 00:52:18;;;;;;;10.18;2.65;;;6.00;99.90;;;;;;5034425;28;20048;-65
2023/12/14 00:54:44;;;;;;;10.15;3.50;;;6.10;99.90;;;;;;5035313;28;20376;-65
2023/12/14 00:57:11;;;;;;;8.13;3.00;;;6.10;99.90;;;;;;5035311;28;20037;-65
2023/12/14 00:59:38;;;;;;;8.02;2.97;;;6.10;99.90;;;;;;5035070;28;20034;-66
2023/12/14 01:02:05;;;;;;;7.20;3.15;;;6.10;99.90;;;;;;5034852;28;20486;-64
2023/12/14 01:04:32;;;;;;;7.82;2.92;;;6.10;99.90;;;;;;5034973;28;20406;-65
2023/12/14 01:06:59;;;;;;;13.57;3.47;;;6.10;99.90;;;;;;5035188;28;20120;-65
2023/12/14 01:09:25;;;;;;;9.88;2.75;;;6.10;99.90;;;;;;5034896;28;20042;-66
2023/12/14 01:11:52;;;;;;;13.70;3.42;;;6.10;99.90;;;;;;5035398;28;20034;-66
2023/12/14 01:14:19;;;;;;;7.95;2.53;;;6.10;99.90;;;;;;5035223;28;20075;-65
2023/12/14 01:16:45;;;;;;;8.48;2.30;;;6.00;99.90;;;;;;5035075;28;20441;-60
2023/12/14 01:19:12;;;;;;;7.70;2.40;;;6.00;99.90;;;;;;5034863;28;20128;-60
2023/12/14 01:21:39;;;;;;;8.70;2.38;;;6.00;99.90;;;;;;5035155;28;20061;-60
2023/12/14 01:24:06;;;;;;;8.02;2.80;;;6.00;99.90;;;;;;5034456;28;20042;-61
2023/12/14 01:26:33;;;;;;;9.05;2.72;;;5.90;99.90;;;;;;5035009;28;20079;-61
2023/12/14 01:28:59;;;;;;;6.63;2.45;;;5.90;99.90;;;;;;5034458;28;20041;-61
2023/12/14 01:31:26;;;;;;;10.30;3.03;;;5.90;99.90;;;;;;5034664;28;20054;-61
2023/12/14 01:33:53;;;;;;;6.72;2.80;;;5.90;99.90;;;;;;5034313;28;20042;-61
2023/12/14 01:36:20;;;;;;;9.38;3.13;;;5.90;99.90;;;;;;5034430;28;20057;-60
2023/12/14 01:38:47;;;;;;;8.55;3.20;;;5.90;99.90;;;;;;5034369;28;20064;-61
2023/12/14 01:41:14;;;;;;;7.45;3.03;;;6.00;99.90;;;;;;5033726;28;20387;-60
2023/12/14 01:43:40;;;;;;;6.50;2.88;;;5.90;99.90;;;;;;5034475;28;20060;-63
2023/12/14 01:46:07;;;;;;;9.88;2.92;;;5.90;99.90;;;;;;5034419;28;20068;-61
2023/12/14 01:48:34;;;;;;;9.80;3.55;;;5.90;99.90;;;;;;5034093;28;20033;-61
2023/12/14 01:51:01;;;;;;;8.35;3.33;;;5.90;99.90;;;;;;5034272;28;20057;-60
2023/12/14 01:53:28;;;;;;;8.20;3.00;;;5.90;99.90;;;;;;5034201;28;20045;-61
2023/12/14 01:55:54;;;;;;;12.40;3.80;;;5.90;99.90;;;;;;5034140;28;20459;-61
2023/12/14 01:58:21;;;;;;;9.52;3.70;;;5.90;99.90;;;;;;5034414;28;20079;-61
2023/12/14 02:00:48;;;;;;;10.43;3.25;;;5.90;99.90;;;;;;5033781;28;20041;-61
2023/12/14 02:03:15;;;;;;;9.05;3.63;;;6.00;99.90;;;;;;5032850;28;20471;-60
2023/12/14 02:05:41;;;;;;;9.50;3.53;;;6.00;99.90;;;;;;5034160;28;20115;-61
2023/12/14 02:08:08;;;;;;;10.27;3.42;;;6.00;99.90;;;;;;5034202;28;20044;-60
2023/12/14 02:10:35;;;;;;;9.52;3.97;;;6.00;99.90;;;;;;5033776;28;20049;-61
2023/12/14 02:13:02;;;;;;;7.50;3.50;;;6.00;99.90;;;;;;5033605;28;20037;-60
2023/12/14 02:15:29;;;;;;;7.28;3.47;;;6.10;99.90;;;;;;5033993;28;20563;-61
2023/12/14 02:17:56;;;;;;;8.15;3.67;;;6.10;99.90;;;;;;5033761;28;20045;-60
2023/12/14 02:20:23;;;;;;;6.65;2.88;;;6.10;99.90;;;;;;5033310;28;20038;-61
2023/12/14 02:22:52;;;;;;;9.43;3.70;;;6.00;99.90;;;;;;5034016;28;20038;-61
2023/12/14 02:25:19;;;;;;;10.00;3.47;;;5.90;99.90;;;;;;5033362;28;20045;-61
2023/12/14 02:27:46;;;;;;;8.98;3.53;;;5.90;99.90;;;;;;5033865;28;20060;-65
2023/12/14 02:30:13;;;;;;;9.48;3.35;;;6.00;99.90;;;;;;5033652;28;20049;-65
2023/12/14 02:32:39;;;;;;;5.53;3.08;;;6.00;99.90;;;;;;5033587;28;20089;-65
2023/12/14 02:35:06;;;;;;;11.55;3.58;;;6.00;99.90;;;;;;5033257;28;20376;-64
2023/12/14 02:37:33;;;;;;;8.25;3.38;;;6.00;99.90;;;;;;5033514;28;20049;-64
2023/12/14 02:40:00;;;;;;;7.97;3.15;;;6.00;99.90;;;;;;5033463;28;20128;-65
2023/12/14 02:42:27;;;;;;;8.07;3.28;;;5.90;99.90;;;;;;5033735;28;20096;-65
2023/12/14 02:44:54;;;;;;;10.27;3.45;;;6.00;99.90;;;;;;5033585;28;20510;-65
2023/12/14 02:47:20;;;;;;;7.72;3.22;;;6.00;99.90;;;;;;5033880;28;20048;-65
2023/12/14 02:49:47;;;;;;;10.05;3.65;;;5.90;99.90;;;;;;5033516;28;20042;-65
2023/12/14 02:52:14;;;;;;;9.70;2.90;;;6.00;99.90;;;;;;5035187;28;20124;-66
2023/12/14 02:54:41;;;;;;;9.07;3.22;;;5.90;99.90;;;;;;5037738;28;20051;-65
2023/12/14 02:57:08;;;;;;;11.43;3.70;;;5.90;99.90;;;;;;5036158;28;20041;-62
2023/12/14 02:59:34;;;;;;;7.93;3.17;;;5.90;99.90;;;;;;5037389;28;20076;-62
2023/12/14 03:02:01;;;;;;;9.07;3.50;;;5.90;99.90;;;;;;5037388;28;20469;-62
2023/12/14 03:04:28;;;;;;;9.95;3.42;;;5.90;99.90;;;;;;5036249;28;20056;-62
2023/12/14 03:06:56;;;;;;;8.82;3.50;;;5.90;99.90;;;;;;5037166;28;20038;-62
2023/12/14 03:09:22;;;;;;;9.70;3.13;;;6.00;99.90;;;;;;5037233;28;20048;-61
2023/12/14 03:11:49;;;;;;;11.35;2.95;;;6.00;99.90;;;;;;5037425;28;20052;-62
2023/12/14 03:14:16;;;;;;;9.65;3.30;;;6.00;99.90;;;;;;5037070;28;20045;-62
2023/12/14 03:16:43;;;;;;;10.07;3.25;;;6.00;99.90;;;;;;5037462;28;20103;-62
2023/12/14 03:19:09;;;;;;;8.20;3.15;;;5.90;99.90;;;;;;5037292;28;20037;-62
2023/12/14 03:21:36;;;;;;;9.93;3.13;;;5.90;99.90;;;;;;5036965;28;20371;-62
2023/12/14 03:24:03;;;;;;;7.82;2.85;;;5.90;99.90;;;;;;5037108;28;20434;-61
2023/12/14 03:26:30;;;;;;;9.95;3.38;;;5.90;99.90;;;;;;5036875;28;20117;-62
2023/12/14 03:28:56;;;;;;;14.32;3.45;;;5.80;99.90;;;;;;5036711;28;20434;-62
2023/12/14 03:31:23;;;;;;;8.57;3.15;;;5.70;99.90;;;;;;5036384;28;20069;-62
2023/12/14 03:33:50;;;;;;;8.48;3.10;;;5.70;99.90;;;;;;5036300;28;20038;-62
2023/12/14 03:36:17;;;;;;;10.73;3.50;;;5.70;99.90;;;;;;5036370;28;20052;-62
2023/12/14 03:38:44;;;;;;;13.35;3.53;;;5.60;99.90;;;;;;5036471;28;20088;-62
2023/12/14 03:41:10;;;;;;;12.75;3.25;;;5.50;99.90;;;;;;5036202;28;20374;-64
2023/12/14 03:43:37;;;;;;;7.88;3.28;;;5.50;99.90;;;;;;5036324;28;20501;-61
2023/12/14 03:46:06;;;;;;;7.85;3.45;;;5.50;99.90;;;;;;5036190;28;20061;-61
2023/12/14 03:48:32;;;;;;;9.10;3.47;;;5.40;99.90;;;;;;5035856;28;20183;-61
2023/12/14 03:50:59;;;;;;;7.82;3.30;;;5.40;99.90;;;;;;5036223;28;20103;-62
2023/12/14 03:53:26;;;;;;;10.68;3.33;;;5.30;99.90;;;;;;5035324;28;20046;-62
2023/12/14 03:55:53;;;;;;;12.45;3.58;;;5.20;99.90;;;;;;5036251;28;20156;-61
2023/12/14 03:58:19;;;;;;;10.07;3.47;;;5.20;99.90;;;;;;5036335;28;20100;-61
2023/12/14 04:00:46;;;;;;;11.00;3.78;;;5.20;99.90;;;;;;5036275;28;20048;-62
2023/12/14 04:03:13;;;;;;;12.48;3.70;;;5.10;99.90;;;;;;5035394;28;20076;-62
2023/12/14 04:05:40;;;;;;;12.30;3.35;;;5.10;99.90;;;;;;5036623;28;20037;-62
2023/12/14 04:08:07;;;;;;;8.68;3.28;;;5.10;99.90;;;;;;5035977;28;20038;-62
2023/12/14 04:10:34;;;;;;;9.77;3.58;;;5.10;99.90;;;;;;5036143;28;20053;-61
2023/12/14 04:13:00;;;;;;;9.90;3.42;;;5.00;99.90;;;;;;5036512;28;20534;-61
2023/12/14 04:15:27;;;;;;;9.77;3.97;;;5.00;99.90;;;;;;5034511;28;20042;-61
2023/12/14 04:17:54;;;;;;;8.75;3.50;;;4.90;99.90;;;;;;5036016;28;20049;-62
2023/12/14 04:20:21;;;;;;;13.00;4.47;;;4.80;99.90;;;;;;5035379;28;20037;-62
2023/12/14 04:22:48;;;;;;;11.82;4.28;;;4.80;99.90;;;;;;5035942;28;20029;-62
2023/12/14 04:25:15;;;;;;;8.90;3.95;;;4.80;99.90;;;;;;5036026;28;20048;-61
2023/12/14 04:27:42;;;;;;;9.45;3.60;;;4.70;99.90;;;;;;5034946;28;20099;-63
2023/12/14 04:30:10;;;;;;;8.30;3.20;;;4.70;99.90;;;;;;5035751;28;20034;-60
2023/12/14 04:32:37;;;;;;;7.13;3.78;;;4.70;99.90;;;;;;5036034;28;20038;-60
2023/12/14 04:35:04;;;;;;;9.18;3.47;;;4.70;99.90;;;;;;5034997;28;20053;-60
2023/12/14 04:37:31;;;;;;;8.15;3.35;;;4.70;99.90;;;;;;5035045;28;20472;-60
2023/12/14 04:39:58;;;;;;;7.20;3.67;;;4.60;99.90;;;;;;5035319;28;20101;-60
2023/12/14 04:42:25;;;;;;;7.45;3.70;;;4.60;99.90;;;;;;5035178;28;20042;-60
2023/12/14 04:44:51;;;;;;;10.85;4.00;;;4.60;99.90;;;;;;5035618;28;20042;-60
2023/12/14 04:47:18;;;;;;;10.02;3.95;;;4.60;99.90;;;;;;5035342;28;20045;-60
2023/12/14 04:49:45;;;;;;;12.88;4.22;;;4.60;99.90;;;;;;5035337;28;20048;-60
2023/12/14 04:52:12;;;;;;;10.77;3.97;;;4.50;99.90;;;;;;5035395;28;20041;-60
2023/12/14 04:54:40;;;;;;;8.77;3.58;;;4.50;99.90;;;;;;5035508;28;20045;-60
2023/12/14 04:57:07;;;;;;;8.23;3.17;;;4.50;99.90;;;;;;5035348;28;20128;-64
2023/12/14 04:59:34;;;;;;;7.90;3.58;;;4.50;99.90;;;;;;5033353;28;20499;-64
2023/12/14 05:02:00;;;;;;;7.43;3.72;;;4.50;99.90;;;;;;5035144;28;20370;-64
2023/12/14 05:04:27;;;;;;;7.95;3.80;;;4.50;99.90;;;;;;5035030;28;20046;-64
2023/12/14 05:06:54;;;;;;;8.50;3.80;;;4.40;99.90;;;;;;5042812;28;20063;-64
2023/12/14 05:09:21;;;;;;;8.95;3.45;;;4.50;99.90;;;;;;5055060;28;20055;-65
2023/12/14 05:11:47;;;;;;;8.73;4.10;;;4.50;99.90;;;;;;5054289;28;20123;-64
2023/12/14 05:14:14;;;;;;;10.20;4.10;;;4.50;99.90;;;;;;5054831;28;20048;-64
2023/12/14 05:16:41;;;;;;;10.75;4.38;;;4.50;99.90;;;;;;5053698;28;20120;-65
2023/12/14 05:19:08;;;;;;;12.05;4.30;;;4.50;99.90;;;;;;5054533;28;20033;-65
2023/12/14 05:21:35;;;;;;;11.80;4.55;;;4.50;99.90;;;;;;5054411;28;20044;-64
2023/12/14 05:24:02;;;;;;;9.18;3.95;;;4.50;99.90;;;;;;5054929;28;20063;-64
2023/12/14 05:26:29;;;;;;;7.70;4.03;;;4.60;99.90;;;;;;5054360;28;20451;-64
2023/12/14 05:28:56;;;;;;;9.98;3.60;;;4.60;99.90;;;;;;5054137;28;20037;-65
2023/12/14 05:31:23;;;;;;;11.85;3.83;;;4.60;99.90;;;;;;5054686;28;20040;-64
2023/12/14 05:33:50;;;;;;;10.32;3.72;;;4.60;99.90;;;;;;5043398;28;20077;-64
2023/12/14 05:36:16;;;;;;;9.18;3.85;;;4.60;99.90;;;;;;5034127;28;20049;-61
2023/12/14 05:38:43;;;;;;;8.95;4.30;;;4.60;99.90;;;;;;5034427;28;20137;-62
2023/12/14 05:41:10;;;;;;;11.38;3.85;;;4.60;99.90;;;;;;5034116;28;20041;-62
2023/12/14 05:43:37;;;;;;;11.98;3.95;;;4.60;99.90;;;;;;5044983;28;20108;-61
2023/12/14 05:46:04;;;;;;;13.25;4.78;;;4.60;99.90;;;;;;5052771;28;20404;-62
2023/12/14 05:48:31;;;;;;;8.48;4.18;;;4.60;99.90;;;;;;5052408;28;20041;-62
2023/12/14 05:50:57;;;;;;;8.55;3.83;;;4.60;99.90;;;;;;5053829;28;20048;-62
2023/12/14 05:53:24;;;;;;;11.77;4.18;;;4.50;99.90;;;;;;5054015;28;20404;-62
2023/12/14 05:55:51;;;;;;;10.23;4.10;;;4.50;99.90;;;;;;5054097;28;20064;-62
2023/12/14 05:58:18;;;;;;;12.55;4.40;;;4.50;99.90;;;;;;5053832;28;20116;-61
2023/12/14 06:00:45;;;;;;;12.85;4.32;;;4.60;99.90;;;;;;5053643;28;20048;-61
2023/12/14 06:03:12;;;;;;;9.95;3.95;;;4.50;99.90;;;;;;5053716;28;20065;-62
2023/12/14 06:05:39;;;;;;;12.52;3.75;;;4.60;99.90;;;;;;5054128;28;20049;-61
2023/12/14 06:08:05;;;;;;;15.30;4.47;;;4.50;99.90;;;;;;5044767;28;20060;-61
2023/12/14 06:10:32;;;;;;;10.40;3.80;;;4.50;99.90;;;;;;5034569;28;20093;-61
2023/12/14 06:12:59;;;;;;;8.25;4.03;;;4.50;99.90;;;;;;5053640;28;20041;-62
2023/12/14 06:15:26;;;;;;;9.32;3.90;;;4.40;99.90;;;;;;5050454;28;20114;-60
2023/12/14 06:17:53;;;;;;;11.35;4.78;;;4.50;99.90;;;;;;5033948;28;20046;-61
2023/12/14 06:20:20;;;;;;;12.75;4.53;;;4.50;99.90;;;;;;5033487;28;20041;-61
2023/12/14 06:22:47;;;;;;;9.88;4.13;;;4.50;99.90;;;;;;5032349;28;20034;-61
2023/12/14 06:25:13;;;;;;;11.85;4.70;;;4.50;99.90;;;;;;5033173;28;20471;-61
2023/12/14 06:27:40;;;;;;;10.88;4.25;;;4.50;99.90;;;;;;5044550;28;20508;-61
2023/12/14 06:30:09;;;;;;;11.32;4.30;;;4.50;99.90;;;;;;5053190;28;20471;-60
2023/12/14 06:32:36;;;;;;;8.75;4.15;;;4.50;99.90;;;;;;5053698;28;20390;-60
2023/12/14 06:35:04;;;;;;;14.00;4.53;;;4.50;99.90;;;;;;5053151;28;20409;-60
2023/12/14 06:37:32;;;;;;;12.30;4.55;;;4.50;99.90;;;;;;5053164;28;20095;-60
2023/12/14 06:39:58;;;;;;;8.82;4.10;;;4.50;99.90;;;;;;5053088;28;20044;-61
2023/12/14 06:42:27;;;;;;;8.88;4.25;;;4.50;99.90;;;;;;5053146;28;20041;-61
2023/12/14 06:44:54;;;;;;;11.57;4.80;;;4.50;99.90;;;;;;5047013;28;20527;-60
2023/12/14 06:47:21;;;;;;;11.93;4.18;;;4.50;99.90;;;;;;5032985;28;20498;-61
2023/12/14 06:49:48;;;;;;;12.23;4.75;;;4.40;99.90;;;;;;5033055;28;20096;-60
2023/12/14 06:52:15;;;;;;;13.25;4.53;;;4.50;99.90;;;;;;5041602;28;20041;-61
2023/12/14 06:54:41;;;;;;;7.90;4.20;;;4.50;99.90;;;;;;5052991;28;20045;-61
2023/12/14 06:57:08;;;;;;;12.40;5.45;;;4.40;99.90;;;;;;5052807;28;20144;-61
2023/12/14 06:59:35;;;;;;;11.27;4.72;;;4.50;99.90;;;;;;5052726;28;20045;-61
2023/12/14 07:02:02;;;;;;;10.55;4.22;;;4.50;99.90;;;;;;5039337;28;20133;-62
2023/12/14 07:04:29;;;;;;;13.23;4.60;;;4.50;99.90;;;;;;5031942;28;20044;-61
2023/12/14 07:06:56;;;;;;;14.95;4.90;;;4.50;99.90;;;;;;5049241;28;20041;-62
2023/12/14 07:09:23;;;;;;;9.65;4.45;;;4.50;99.90;;;;;;5033662;28;20047;-62
2023/12/14 07:11:49;;;;;;;12.00;4.00;;;4.50;99.90;;;;;;5032584;28;20041;-62
2023/12/14 07:14:16;;;;;;;12.38;5.00;;;4.60;99.90;;;;;;5032213;28;20069;-62
2023/12/14 07:16:44;;;;;;;9.63;3.80;;;4.60;99.90;;;;;;5032543;28;20498;-65
2023/12/14 07:19:11;;;;;;;8.70;3.95;;;4.50;99.90;;;;;;5030930;28;20117;-64
2023/12/14 07:21:38;;;;;;;13.75;4.93;;;4.50;99.90;;;;;;5030692;28;20048;-62
2023/12/14 07:24:05;;;;;;;11.60;4.05;;;4.50;99.90;;;;;;5031462;28;20038;-62
2023/12/14 07:26:32;;;;;;;8.57;3.97;;;4.50;99.90;;;;;;5031235;28;20105;-62
2023/12/14 07:28:58;;;;;;;11.00;3.92;;;4.50;99.90;;;;;;5031289;28;20129;-62
2023/12/14 07:31:27;;;;;;;13.30;3.78;;;4.50;99.90;;;;;;5032339;28;20048;-62
2023/12/14 07:33:54;;;;;;;9.70;4.10;;;4.50;99.90;;;;;;5031549;28;20049;-62
2023/12/14 07:36:22;;;;;;;11.02;4.20;;;4.60;99.90;;;;;;5030822;28;20053;-62
2023/12/14 07:38:49;;;;;;;11.65;4.03;;;4.60;99.90;;;;;;5032432;28;20136;-62
2023/12/14 07:41:26;;;;;;;9.48;3.53;;;4.60;99.90;;;;;;5035317;28;20060;-63
2023/12/14 07:43:53;;;;;;;13.27;3.95;;;4.60;99.90;;;;;;5034041;28;20570;-62
2023/12/14 07:46:20;;;;;;;12.63;4.00;;;4.60;99.90;;;;;;5036047;28;20152;-62
2023/12/14 07:48:47;;;;;;;11.40;3.83;;;4.60;99.90;;;;;;5035871;28;20057;-62
2023/12/14 07:51:14;;;;;;;12.57;4.30;;;4.70;99.90;;;;;;5036107;28;20041;-62
2023/12/14 07:53:42;;;;;;;11.88;3.95;;;4.60;99.90;;;;;;5036360;28;20061;-62
2023/12/14 07:56:09;;;;;;;11.65;3.97;;;4.60;99.90;;;;;;5035941;28;20037;-62
2023/12/14 07:58:36;;;;;;;10.95;3.45;;;4.60;99.90;;;;;;5036103;28;20103;-62
2023/12/14 08:01:03;;;;;;;8.07;3.78;;;4.60;99.90;;;;;;5036378;28;20095;-62
2023/12/14 08:03:29;;;;;;;9.88;3.97;;;4.60;99.90;;;;;;5036157;28;20041;-62
2023/12/14 08:05:56;;;;;;;10.88;3.60;;;4.70;99.90;;;;;;5035659;28;20584;-62
2023/12/14 08:08:24;;;;;;;8.38;3.30;;;4.70;99.90;;;;;;5036170;28;20079;-61
2023/12/14 08:10:50;;;;;;;9.52;3.20;;;4.70;99.90;;;;;;5036269;28;20044;-61
2023/12/14 08:13:18;;;;;;;9.85;3.70;;;4.70;99.90;;;;;;5035959;28;20424;-61
2023/12/14 08:15:45;;;;;;;12.15;3.60;;;4.70;99.90;;;;;;5036096;28;20397;-62
2023/12/14 08:18:12;;;;;;;9.27;3.83;;;4.70;99.90;;;;;;5036049;28;20063;-62
2023/12/14 08:20:39;;;;;;;11.50;3.92;;;4.70;99.90;;;;;;5035452;28;20056;-61
2023/12/14 08:23:06;;;;;;;8.52;3.65;;;4.80;99.90;;;;;;5035489;28;20069;-62
2023/12/14 08:25:33;;;;;;;18.67;7.60;;;4.80;99.90;;;;;;5035329;28;20037;-62
2023/12/14 08:28:00;;;;;;;14.07;3.67;;;4.80;99.90;;;;;;5035860;28;20407;-62
2023/12/14 08:30:30;;;;;;;9.48;3.80;;;4.80;99.90;;;;;;5034244;28;20070;-62
2023/12/14 08:32:57;;;;;;;7.20;3.20;;;4.80;99.90;;;;;;5035364;28;20160;-62
2023/12/14 08:35:23;;;;;;;10.73;3.35;;;4.80;99.90;;;;;;5035375;28;20053;-62
2023/12/14 08:37:50;;;;;;;15.15;3.35;;;4.90;99.90;;;;;;5035936;28;20053;-62
2023/12/14 08:40:17;;;;;;;10.48;3.65;;;5.00;99.90;;;;;;5034382;28;20037;-63
2023/12/14 08:42:44;;;;;;;13.65;3.38;;;4.90;99.90;;;;;;5035581;28;20045;-62
2023/12/14 08:45:13;;;;;;;11.95;3.17;;;4.90;99.90;;;;;;5035732;28;20044;-62
2023/12/14 08:47:40;;;;;;;7.80;3.33;;;5.00;99.90;;;;;;5035461;28;20413;-62
2023/12/14 08:50:08;;;;;;;7.82;3.85;;;5.00;99.90;;;;;;5035053;28;20041;-62
2023/12/14 08:52:35;;;;;;;8.43;3.72;;;5.00;99.90;;;;;;5035041;28;20041;-62
2023/12/14 08:55:02;;;;;;;8.95;3.78;;;5.00;99.90;;;;;;5035129;28;20037;-62
2023/12/14 08:57:29;;;;;;;7.45;3.70;;;5.10;99.90;;;;;;5034714;28;20049;-62
2023/12/14 08:59:56;;;;;;;10.98;5.10;;;5.10;99.90;;;;;;5034852;28;20044;-62
2023/12/14 09:02:22;;;;;;;7.32;3.70;;;5.10;99.90;;;;;;5034321;28;20487;-62
2023/12/14 09:04:49;;;;;;;24.08;4.25;;;5.10;99.90;;;;;;5034612;28;20037;-62
2023/12/14 09:07:16;;;;;;;8.50;2.97;;;5.10;99.90;;;;;;5034895;28;20099;-62
2023/12/14 09:09:43;;;;;;;11.18;2.90;;;5.20;99.90;;;;;;5034837;28;20041;-62
2023/12/14 09:12:10;;;;;;;10.63;2.83;;;5.20;99.90;;;;;;5034826;28;20049;-62
2023/12/14 09:14:37;;;;;;;58.03;7.32;;;5.20;99.90;;;;;;5034816;28;20045;-62
2023/12/14 09:17:04;;;;;;;18.17;4.25;;;5.30;99.90;;;;;;5033103;28;20053;-62
2023/12/14 09:19:31;;;;;;;12.13;3.00;;;5.20;99.90;;;;;;5034335;28;20438;-62
2023/12/14 09:21:58;;;;;;;6.32;2.85;;;5.20;99.90;;;;;;5034356;28;20107;-62
2023/12/14 09:24:25;;;;;;;7.43;2.40;;;5.20;99.90;;;;;;5034780;28;20417;-62
2023/12/14 09:26:51;;;;;;;9.82;3.70;;;5.20;99.90;;;;;;5034275;28;20048;-61
2023/12/14 09:29:18;;;;;;;374.33;34.78;;;5.20;99.90;;;;;;5033823;28;20356;-62
2023/12/14 09:31:45;;;;;;;97.95;11.48;;;5.30;99.90;;;;;;5034360;28;20100;-62
2023/12/14 09:34:12;;;;;;;16.45;4.35;;;5.30;99.90;;;;;;5034155;28;20112;-62
2023/12/14 09:36:39;;;;;;;11.07;3.10;;;5.40;99.90;;;;;;5034133;28;20471;-62
2023/12/14 09:39:10;;;;;;;10.20;2.72;;;5.40;99.90;;;;;;5034105;28;20470;-62
2023/12/14 09:41:38;;;;;;;8.80;2.58;;;5.50;99.90;;;;;;5034403;28;20073;-62
2023/12/14 09:44:05;;;;;;;6.15;2.42;;;5.60;99.90;;;;;;5034099;28;20384;-63
2023/12/14 09:46:32;;;;;;;11.05;2.92;;;5.50;99.90;;;;;;5034266;28;20046;-62
2023/12/14 09:48:59;;;;;;;6.90;2.75;;;5.60;99.90;;;;;;5032907;28;20060;-62
2023/12/14 09:51:26;;;;;;;13.77;3.95;;;5.60;99.90;;;;;;5034201;28;20041;-62
2023/12/14 09:53:57;;;;;;;7.43;2.33;;;5.70;99.90;;;;;;5034050;28;20061;-62
2023/12/14 09:56:24;;;;;;;8.02;2.40;;;5.70;99.90;;;;;;5033676;28;20419;-62
2023/12/14 09:58:51;;;;;;;5.50;2.00;;;5.80;99.90;;;;;;5033803;28;20049;-62
2023/12/14 10:01:18;;;;;;;8.98;2.40;;;5.80;99.90;;;;;;5033155;28;20394;-63
2023/12/14 10:03:45;;;;;;;6.78;2.20;;;5.80;99.90;;;;;;5033464;28;20444;-62
2023/12/14 10:06:12;;;;;;;7.68;2.78;;;5.80;99.90;;;;;;5033993;28;20068;-62
2023/12/14 10:08:39;;;;;;;7.85;2.28;;;5.90;99.90;;;;;;5033867;28;20046;-62
2023/12/14 10:11:11;;;;;;;7.68;2.75;;;6.00;99.90;;;;;;5033497;28;20140;-62
2023/12/14 10:13:38;;;;;;;5.43;2.25;;;6.00;99.90;;;;;;5033932;28;20124;-62
2023/12/14 10:16:05;;;;;;;8.02;2.25;;;6.10;99.90;;;;;;5033616;28;20493;-62
2023/12/14 10:18:34;;;;;;;6.25;2.22;;;6.20;99.90;;;;;;5033606;28;20072;-62
2023/12/14 10:21:01;;;;;;;6.60;1.77;;;6.20;99.90;;;;;;5033726;28;20370;-62
2023/12/14 10:23:28;;;;;;;6.53;2.03;;;6.30;99.90;;;;;;5033033;28;20121;-62
2023/12/14 10:25:55;;;;;;;6.82;2.15;;;6.40;99.90;;;;;;5033406;28;20578;-62
2023/12/14 10:28:21;;;;;;;9.88;2.85;;;6.40;99.90;;;;;;5033517;28;20045;-62
2023/12/14 10:30:48;;;;;;;5.22;1.80;;;6.50;99.90;;;;;;5033521;28;20463;-62
2023/12/14 10:33:16;;;;;;;6.07;1.80;;;6.50;99.90;;;;;;5033655;28;20041;-62
2023/12/14 10:35:45;;;;;;;6.35;1.73;;;6.60;99.90;;;;;;5033530;28;20056;-62
2023/12/14 10:38:13;;;;;;;9.25;1.90;;;6.60;99.90;;;;;;5033484;28;20045;-62
2023/12/14 10:40:43;;;;;;;3.85;1.60;;;6.60;99.90;;;;;;5033515;28;20041;-62
2023/12/14 10:43:10;;;;;;;5.72;1.85;;;6.70;99.90;;;;;;5033446;28;20077;-62
2023/12/14 10:45:37;;;;;;;5.28;1.65;;;6.70;99.90;;;;;;5033117;28;20037;-62
2023/12/14 10:48:04;;;;;;;6.97;2.00;;;6.80;99.90;;;;;;5033426;28;20037;-62
2023/12/14 10:50:31;;;;;;;12.27;2.30;;;6.80;99.90;;;;;;5033533;28;20045;-62
2023/12/14 10:52:59;;;;;;;5.75;1.80;;;6.90;99.90;;;;;;5033447;28;20081;-62
2023/12/14 10:55:25;;;;;;;8.10;1.98;;;6.90;99.90;;;;;;5033449;28;20041;-62
2023/12/14 10:57:53;;;;;;;6.93;2.10;;;6.90;99.90;;;;;;5033226;28;20045;-62
2023/12/14 11:00:20;;;;;;;8.55;1.50;;;6.90;99.90;;;;;;5033318;28;20045;-62
2023/12/14 11:02:46;;;;;;;6.55;1.80;;;6.90;99.90;;;;;;5033276;28;20052;-62
2023/12/14 11:05:15;;;;;;;7.07;1.85;;;7.00;99.90;;;;;;5033457;28;20041;-62
2023/12/14 11:07:43;;;;;;;11.48;1.70;;;7.00;99.90;;;;;;5033283;28;20041;-61
2023/12/14 11:10:11;;;;;;;6.53;1.90;;;7.10;99.90;;;;;;5033342;28;20065;-62
2023/12/14 11:12:38;;;;;;;179.10;17.90;;;7.10;99.90;;;;;;5033919;28;20045;-62
2023/12/14 11:15:04;;;;;;;11.55;2.88;;;7.10;99.90;;;;;;5037215;28;20344;-61
2023/12/14 11:17:34;;;;;;;9.93;2.30;;;7.10;99.90;;;;;;5037276;28;20089;-62
2023/12/14 11:20:02;;;;;;;9.10;2.10;;;7.10;99.90;;;;;;5036815;28;20140;-62
2023/12/14 11:22:29;;;;;;;7.15;2.08;;;7.10;99.90;;;;;;5037121;28;20112;-62
2023/12/14 11:24:56;;;;;;;5.85;1.88;;;7.10;99.90;;;;;;5036894;28;20042;-63
2023/12/14 11:27:23;;;;;;;5.32;1.88;;;7.20;99.90;;;;;;5037522;28;20049;-62
2023/12/14 11:29:50;;;;;;;5.43;2.17;;;7.20;99.90;;;;;;5035608;28;20104;-63
2023/12/14 11:32:17;;;;;;;9.13;2.10;;;7.10;99.90;;;;;;5036596;28;20041;-62
2023/12/14 11:34:44;;;;;;;5.95;2.10;;;7.20;99.90;;;;;;5036792;28;20111;-62
2023/12/14 11:37:11;;;;;;;6.18;1.90;;;7.20;99.90;;;;;;5037171;28;20041;-62
2023/12/14 11:39:38;;;;;;;5.38;2.00;;;7.20;99.90;;;;;;5036471;28;20080;-62
2023/12/14 11:42:08;;;;;;;4.55;2.05;;;7.20;99.90;;;;;;5036852;28;20095;-62
2023/12/14 11:44:36;;;;;;;7.55;2.00;;;7.30;99.90;;;;;;5036977;28;20042;-62
2023/12/14 11:47:05;;;;;;;5.70;2.08;;;7.20;99.90;;;;;;5036793;28;20043;-62
2023/12/14 11:49:32;;;;;;;6.38;2.28;;;7.20;99.90;;;;;;5036260;28;20049;-61
2023/12/14 11:51:59;;;;;;;8.52;2.47;;;7.30;99.90;;;;;;5036441;28;20479;-61
2023/12/14 11:54:25;;;;;;;7.05;2.38;;;7.30;99.90;;;;;;5036134;28;20478;-61
2023/12/14 11:56:52;;;;;;;5.32;1.90;;;7.30;99.90;;;;;;5036487;28;20046;-62
2023/12/14 11:59:20;;;;;;;10.02;2.70;;;7.30;99.90;;;;;;5036433;28;20045;-62
2023/12/14 12:01:48;;;;;;;4.60;2.13;;;7.30;99.90;;;;;;5036634;28;20120;-61
2023/12/14 12:04:18;;;;;;;8.18;2.67;;;7.40;99.90;;;;;;5036437;28;20125;-61
2023/12/14 12:06:45;;;;;;;8.38;2.50;;;7.40;99.90;;;;;;5036358;28;20132;-61
2023/12/14 12:09:13;;;;;;;10.43;2.85;;;7.50;99.90;;;;;;5036761;28;20045;-61
2023/12/14 12:11:39;;;;;;;8.63;2.83;;;7.50;99.90;;;;;;5036498;28;20045;-62
2023/12/14 12:14:06;;;;;;;6.75;2.35;;;7.60;99.90;;;;;;5036578;28;20045;-62
2023/12/14 12:16:34;;;;;;;7.00;2.92;;;7.50;99.90;;;;;;5036619;28;20099;-63
2023/12/14 12:19:01;;;;;;;7.35;2.72;;;7.60;99.90;;;;;;5035903;28;20037;-63
2023/12/14 12:21:28;;;;;;;7.07;2.70;;;7.60;99.90;;;;;;5035854;28;20462;-62
2023/12/14 12:23:55;;;;;;;9.40;2.63;;;7.60;99.90;;;;;;5035814;28;20088;-63
2023/12/14 12:26:22;;;;;;;7.15;2.63;;;7.60;99.90;;;;;;5035819;28;20171;-63
2023/12/14 12:28:48;;;;;;;5.93;2.70;;;7.60;99.90;;;;;;5034762;28;20112;-63
2023/12/14 12:31:16;;;;;;;5.82;2.53;;;7.70;99.90;;;;;;5035694;28;20518;-62
2023/12/14 12:33:43;;;;;;;5.82;2.38;;;7.60;99.90;;;;;;5035811;28;20068;-62
2023/12/14 12:36:10;;;;;;;10.13;2.78;;;7.60;99.90;;;;;;5035492;28;20049;-62
2023/12/14 12:38:40;;;;;;;10.93;2.60;;;7.60;99.90;;;;;;5035632;28;20128;-62
2023/12/14 12:41:07;;;;;;;9.95;2.17;;;7.60;99.90;;;;;;5035683;28;20122;-62
2023/12/14 12:43:34;;;;;;;5.82;2.35;;;7.60;99.90;;;;;;5035706;28;20067;-62
2023/12/14 12:46:02;;;;;;;5.90;2.13;;;7.70;99.90;;;;;;5035738;28;20046;-62
2023/12/14 12:48:29;;;;;;;7.28;2.30;;;7.70;99.90;;;;;;5035463;28;20096;-63
2023/12/14 12:50:56;;;;;;;6.13;2.97;;;7.70;99.90;;;;;;5035296;28;20065;-63